createdAt,value
2018-06-06T00:01:53.735Z,35.60
2018-06-06T00:04:22.347Z,34.10
2018-06-06T00:06:50.875Z,35.03
2018-06-06T00:09:19.521Z,35.33
2018-06-06T00:11:48.063Z,36.60
2018-06-06T00:14:16.722Z,35.17
2018-06-06T00:16:45.320Z,35.93
2018-06-06T00:19:14.989Z,38.30
2018-06-06T00:21:43.536Z,35.57
2018-06-06T00:24:12.208Z,35.57
2018-06-06T00:26:40.770Z,33.47
2018-06-06T00:29:09.506Z,34.53
2018-06-06T00:31:39.044Z,35.80
2018-06-06T00:34:07.695Z,34.47
2018-06-06T00:36:36.283Z,36.90
2018-06-06T00:39:08.509Z,37.47
2018-06-06T00:41:37.813Z,37.73
2018-06-06T00:44:06.429Z,36.90
2018-06-06T00:46:35.080Z,37.33
2018-06-06T00:49:03.665Z,35.50
2018-06-06T00:51:32.475Z,32.00
2018-06-06T00:54:01.062Z,36.13
2018-06-06T00:56:29.713Z,38.07
2018-06-06T00:58:58.287Z,34.73
2018-06-06T01:01:26.888Z,34.70
2018-06-06T01:03:55.516Z,37.50
2018-06-06T01:06:24.111Z,36.13
2018-06-06T01:08:52.702Z,37.00
2018-06-06T01:11:21.287Z,40.40
2018-06-06T01:13:49.884Z,36.60
2018-06-06T01:16:18.456Z,36.37
2018-06-06T01:18:47.003Z,36.27
2018-06-06T01:21:15.581Z,39.50
2018-06-06T01:23:44.151Z,39.23
2018-06-06T01:26:12.884Z,36.23
2018-06-06T01:28:40.416Z,40.33
2018-06-06T01:31:08.960Z,38.63
2018-06-06T01:33:37.815Z,37.33
2018-06-06T01:36:06.504Z,38.73
2018-06-06T01:38:35.164Z,35.97
2018-06-06T01:41:03.809Z,35.83
2018-06-06T01:43:32.711Z,38.40
2018-06-06T01:46:01.241Z,36.50
2018-06-06T01:48:29.872Z,37.30
2018-06-06T01:50:58.428Z,32.83
2018-06-06T01:53:27.296Z,35.17
2018-06-06T01:55:55.837Z,38.20
2018-06-06T01:58:25.183Z,37.13
2018-06-06T02:00:53.747Z,40.13
2018-06-06T02:03:22.465Z,39.80
2018-06-06T02:05:51.023Z,36.20
2018-06-06T02:34:00.573Z,35.83
2018-06-06T02:36:29.191Z,32.20
2018-06-06T02:38:58.468Z,34.57
2018-06-06T02:41:27.120Z,34.00
2018-06-06T02:43:55.800Z,33.93
2018-06-06T02:46:26.648Z,35.17
2018-06-06T02:48:55.253Z,34.23
2018-06-06T02:51:23.820Z,35.13
2018-06-06T02:53:52.459Z,31.70
2018-06-06T02:56:21.051Z,35.23
2018-06-06T02:58:49.605Z,32.40
2018-06-06T03:01:18.264Z,34.27
2018-06-06T03:03:46.824Z,32.60
2018-06-06T03:06:15.544Z,33.80
2018-06-06T03:08:44.180Z,30.53
2018-06-06T03:11:12.752Z,33.80
2018-06-06T03:13:41.395Z,32.57
2018-06-06T03:16:09.965Z,31.67
2018-06-06T03:18:38.658Z,36.73
2018-06-06T03:21:10.872Z,32.87
2018-06-06T03:23:39.518Z,34.67
2018-06-06T03:26:08.295Z,34.77
2018-06-06T03:28:36.940Z,35.70
2018-06-06T03:31:06.427Z,35.60
2018-06-06T03:33:35.249Z,34.07
2018-06-06T03:36:03.963Z,31.13
2018-06-06T03:38:32.648Z,32.63
2018-06-06T03:41:01.221Z,33.97
2018-06-06T03:43:29.915Z,33.30
2018-06-06T03:45:58.480Z,32.03
2018-06-06T03:48:27.148Z,31.80
2018-06-06T03:50:55.724Z,29.60
2018-06-06T03:53:24.355Z,32.30
2018-06-06T03:55:53.469Z,33.73
2018-06-06T03:58:22.231Z,32.37
2018-06-06T04:00:50.984Z,33.80
2018-06-06T04:03:19.904Z,32.17
2018-06-06T04:05:48.622Z,44.47
2018-06-06T04:08:17.287Z,39.20
2018-06-06T04:10:45.973Z,36.57
2018-06-06T04:13:14.504Z,34.07
2018-06-06T04:15:43.272Z,37.60
2018-06-06T04:18:11.916Z,33.70
2018-06-06T04:20:40.549Z,36.07
2018-06-06T04:23:09.095Z,35.80
2018-06-06T04:25:37.772Z,31.07
2018-06-06T04:28:06.554Z,33.63
2018-06-06T04:30:35.252Z,30.83
2018-06-06T04:33:03.819Z,35.40
2018-06-06T04:35:32.420Z,57.57
2018-06-06T04:38:01.025Z,71.70
2018-06-06T04:40:29.716Z,34.73
2018-06-06T04:42:58.288Z,35.17
2018-06-06T04:45:27.764Z,33.43
2018-06-06T04:47:56.408Z,32.33
2018-06-06T04:50:25.063Z,33.30
2018-06-06T04:52:53.681Z,31.50
2018-06-06T04:55:22.245Z,32.80
2018-06-06T04:57:50.964Z,38.90
2018-06-06T05:00:19.596Z,42.40
2018-06-06T05:02:48.170Z,34.57
2018-06-06T05:05:16.913Z,37.13
2018-06-06T05:07:45.534Z,38.63
2018-06-06T05:10:14.089Z,34.47
2018-06-06T05:12:42.755Z,36.57
2018-06-06T05:15:11.455Z,35.30
2018-06-06T05:17:40.056Z,33.53
2018-06-06T05:20:08.610Z,37.03
2018-06-06T05:22:37.195Z,32.50
2018-06-06T05:25:06.009Z,32.90
2018-06-06T05:27:34.556Z,36.10
2018-06-06T05:30:03.410Z,37.30
2018-06-06T05:32:32.038Z,31.27
2018-06-06T05:35:00.856Z,37.67
2018-06-06T05:37:29.492Z,32.87
2018-06-06T05:39:58.072Z,32.83
2018-06-06T05:42:26.619Z,31.53
2018-06-06T05:44:55.268Z,32.97
2018-06-06T05:47:23.816Z,31.87
2018-06-06T05:49:52.420Z,30.10
2018-06-06T05:52:21.938Z,32.73
2018-06-06T05:54:50.892Z,31.80
2018-06-06T05:57:19.498Z,31.73
2018-06-06T05:59:48.323Z,32.97
2018-06-06T06:02:16.858Z,32.80
2018-06-06T06:04:45.725Z,31.57
2018-06-06T06:07:14.296Z,30.53
2018-06-06T06:09:42.927Z,30.60
2018-06-06T06:12:11.588Z,31.07
2018-06-06T06:14:40.244Z,30.00
2018-06-06T06:17:08.993Z,26.97
2018-06-06T06:19:38.128Z,27.17
2018-06-06T06:22:06.792Z,26.40
2018-06-06T06:24:35.495Z,27.17
2018-06-06T06:27:04.200Z,28.60
2018-06-06T06:29:32.744Z,26.40
2018-06-06T06:32:01.353Z,25.07
2018-06-06T06:34:29.944Z,24.10
2018-06-06T06:36:58.734Z,26.57
2018-06-06T06:39:27.364Z,24.33
2018-06-06T06:41:55.979Z,24.60
2018-06-06T06:44:24.515Z,25.60
2018-06-06T06:46:53.168Z,24.90
2018-06-06T06:49:21.757Z,23.60
2018-06-06T06:51:50.351Z,23.40
2018-06-06T06:54:18.953Z,24.20
2018-06-06T06:56:47.597Z,19.97
2018-06-06T06:59:16.209Z,20.73
2018-06-06T07:01:44.929Z,20.10
2018-06-06T07:04:13.549Z,21.27
2018-06-06T07:06:42.142Z,24.83
2018-06-06T07:09:10.849Z,20.87
2018-06-06T07:11:39.496Z,21.40
2018-06-06T07:14:08.685Z,21.10
2018-06-06T07:16:37.308Z,21.07
2018-06-06T07:19:05.971Z,20.70
2018-06-06T07:21:35.122Z,21.30
2018-06-06T07:24:05.491Z,19.90
2018-06-06T07:26:34.049Z,21.20
2018-06-06T07:29:02.647Z,19.17
2018-06-06T07:31:31.269Z,19.77
2018-06-06T07:33:59.849Z,18.07
2018-06-06T07:36:28.434Z,18.00
2018-06-06T07:38:57.262Z,16.43
2018-06-06T07:41:25.829Z,18.27
2018-06-06T07:43:54.441Z,16.70
2018-06-06T07:46:23.008Z,17.90
2018-06-06T07:48:51.953Z,17.20
2018-06-06T07:51:20.495Z,21.63
2018-06-06T07:53:49.296Z,17.10
2018-06-06T07:56:17.952Z,20.20
2018-06-06T07:58:46.492Z,15.10
2018-06-06T08:01:15.138Z,18.60
2018-06-06T08:03:43.816Z,16.83
2018-06-06T08:06:12.585Z,17.83
2018-06-06T08:08:41.388Z,16.83
2018-06-06T08:11:10.037Z,18.47
2018-06-06T08:13:38.641Z,18.30
2018-06-06T08:16:07.259Z,16.83
2018-06-06T08:18:35.859Z,18.20
2018-06-06T08:21:04.578Z,20.17
2018-06-06T08:23:33.264Z,21.50
2018-06-06T08:26:01.900Z,21.83
2018-06-06T08:28:30.488Z,19.80
2018-06-06T08:30:59.117Z,20.03
2018-06-06T08:33:27.760Z,18.67
2018-06-06T08:35:56.496Z,18.43
2018-06-06T08:38:25.148Z,21.27
2018-06-06T08:40:53.733Z,20.53
2018-06-06T08:43:22.324Z,18.60
2018-06-06T08:45:51.191Z,19.33
2018-06-06T08:48:19.824Z,18.83
2018-06-06T08:50:48.451Z,19.27
2018-06-06T08:53:17.148Z,17.77
2018-06-06T08:55:45.688Z,20.43
2018-06-06T08:58:14.298Z,19.70
2018-06-06T09:00:42.817Z,19.10
2018-06-06T09:03:11.520Z,18.43
2018-06-06T09:05:40.288Z,19.60
2018-06-06T09:08:09.037Z,18.53
2018-06-06T09:10:37.612Z,19.17
2018-06-06T09:13:06.297Z,16.53
2018-06-06T09:15:34.864Z,18.23
2018-06-06T09:18:03.829Z,18.10
2018-06-06T09:20:32.392Z,18.57
2018-06-06T09:23:01.008Z,16.60
2018-06-06T09:25:29.681Z,18.90
2018-06-06T09:27:58.287Z,17.47
2018-06-06T09:30:26.976Z,18.77
2018-06-06T09:32:55.542Z,17.60
2018-06-06T09:35:24.112Z,17.40
2018-06-06T09:37:53.025Z,16.83
2018-06-06T09:40:21.628Z,16.23
2018-06-06T09:42:50.328Z,16.97
2018-06-06T09:45:18.917Z,17.13
2018-06-06T09:47:47.468Z,17.53
2018-06-06T09:50:16.138Z,17.83
2018-06-06T09:52:44.775Z,16.00
2018-06-06T09:55:13.508Z,18.03
2018-06-06T09:57:42.364Z,15.87
2018-06-06T10:00:11.013Z,15.87
2018-06-06T10:02:39.679Z,14.57
2018-06-06T10:05:08.285Z,15.03
2018-06-06T10:07:36.844Z,14.27
2018-06-06T10:10:05.590Z,14.27
2018-06-06T10:12:34.236Z,14.03
2018-06-06T10:15:02.901Z,13.97
2018-06-06T10:17:31.588Z,14.50
2018-06-06T10:20:00.404Z,14.80
2018-06-06T10:22:29.063Z,13.40
2018-06-06T10:24:57.794Z,13.87
2018-06-06T10:27:26.363Z,14.00
2018-06-06T10:29:55.058Z,12.63
2018-06-06T10:32:23.705Z,12.83
2018-06-06T10:34:52.373Z,12.03
2018-06-06T10:37:21.049Z,13.20
2018-06-06T10:39:49.703Z,12.83
2018-06-06T10:42:18.397Z,11.83
2018-06-06T10:44:47.038Z,12.60
2018-06-06T10:47:16.101Z,11.60
2018-06-06T10:49:44.820Z,12.80
2018-06-06T10:52:13.627Z,12.77
2018-06-06T10:54:42.424Z,13.27
2018-06-06T10:57:11.140Z,12.53
2018-06-06T10:59:39.674Z,12.13
2018-06-06T11:02:08.296Z,12.80
2018-06-06T11:04:37.036Z,13.90
2018-06-06T11:07:05.797Z,11.67
2018-06-06T11:09:34.488Z,11.10
2018-06-06T11:12:03.080Z,11.13
2018-06-06T11:14:31.749Z,11.40
2018-06-06T11:17:00.387Z,11.60
2018-06-06T11:19:28.981Z,10.93
2018-06-06T11:21:57.653Z,10.80
2018-06-06T11:24:26.289Z,11.13
2018-06-06T11:26:54.948Z,10.40
2018-06-06T11:29:23.564Z,11.87
2018-06-06T11:31:52.101Z,10.83
2018-06-06T11:34:21.318Z,10.50
2018-06-06T11:36:49.883Z,10.30
2018-06-06T11:39:18.469Z,11.60
2018-06-06T11:41:47.053Z,11.70
2018-06-06T11:44:15.627Z,9.07
2018-06-06T11:46:44.177Z,10.57
2018-06-06T11:49:12.806Z,10.70
2018-06-06T11:51:41.612Z,10.67
2018-06-06T11:54:10.274Z,10.00
2018-06-06T11:56:38.951Z,9.57
2018-06-06T11:59:07.563Z,10.20
2018-06-06T12:01:36.386Z,9.73
2018-06-06T12:04:04.985Z,9.43
2018-06-06T12:06:33.681Z,8.73
2018-06-06T12:09:02.284Z,8.00
2018-06-06T12:11:30.978Z,10.60
2018-06-06T12:13:59.612Z,10.37
2018-06-06T12:16:28.373Z,9.40
2018-06-06T12:18:57.172Z,10.80
2018-06-06T12:21:25.871Z,12.37
2018-06-06T12:23:54.425Z,7.43
2018-06-06T12:26:23.013Z,6.60
2018-06-06T12:28:51.596Z,7.83
2018-06-06T12:31:20.227Z,8.93
2018-06-06T12:33:49.020Z,7.87
2018-06-06T12:36:17.866Z,8.13
2018-06-06T12:38:46.502Z,8.30
2018-06-06T12:41:15.065Z,8.60
2018-06-06T12:43:43.692Z,7.40
2018-06-06T12:46:12.290Z,6.90
2018-06-06T12:48:41.010Z,8.00
2018-06-06T12:51:09.665Z,6.13
2018-06-06T12:53:39.396Z,7.13
2018-06-06T12:56:07.990Z,8.27
2018-06-06T12:58:36.883Z,7.50
2018-06-06T13:01:05.456Z,6.93
2018-06-06T13:03:34.052Z,7.43
2018-06-06T13:06:02.930Z,6.67
2018-06-06T13:08:31.567Z,7.97
2018-06-06T13:11:00.143Z,7.77
2018-06-06T13:13:28.909Z,7.50
2018-06-06T13:15:57.583Z,7.40
2018-06-06T13:18:26.789Z,44.97
2018-06-06T13:20:55.572Z,6.67
2018-06-06T13:23:24.287Z,6.50
2018-06-06T13:25:52.899Z,6.77
2018-06-06T13:28:21.596Z,6.57
2018-06-06T13:30:50.179Z,7.40
2018-06-06T13:33:18.760Z,7.40
2018-06-06T13:35:47.403Z,8.23
2018-06-06T13:38:16.093Z,7.60
2018-06-06T13:40:44.985Z,7.80
2018-06-06T13:43:13.719Z,6.40
2018-06-06T13:45:42.489Z,6.50
2018-06-06T13:48:11.213Z,6.83
2018-06-06T13:50:39.851Z,7.40
2018-06-06T13:53:08.468Z,7.67
2018-06-06T13:55:37.223Z,7.40
2018-06-06T13:58:05.857Z,8.17
2018-06-06T14:00:34.646Z,8.47
2018-06-06T14:03:03.490Z,7.53
2018-06-06T14:05:32.621Z,7.67
2018-06-06T14:08:01.528Z,7.40
2018-06-06T14:10:30.279Z,7.27
2018-06-06T14:12:58.964Z,7.93
2018-06-06T14:15:28.561Z,7.03
2018-06-06T14:17:57.347Z,7.00
2018-06-06T14:20:26.188Z,7.67
2018-06-06T14:22:54.846Z,6.53
2018-06-06T14:25:23.684Z,6.60
2018-06-06T14:27:52.381Z,7.47
2018-06-06T14:30:20.980Z,7.10
2018-06-06T14:32:49.791Z,7.23
2018-06-06T14:35:18.618Z,6.50
2018-06-06T14:37:47.336Z,6.83
2018-06-06T14:40:16.102Z,7.97
2018-06-06T14:42:44.815Z,6.80
2018-06-06T14:45:13.548Z,6.50
2018-06-06T14:47:42.281Z,6.73
2018-06-06T14:50:10.815Z,6.03
2018-06-06T14:52:39.688Z,7.00
2018-06-06T14:55:08.289Z,7.17
2018-06-06T14:57:37.149Z,8.70
2018-06-06T15:00:06.011Z,6.80
2018-06-06T15:02:34.754Z,7.13
2018-06-06T15:05:03.420Z,7.20
2018-06-06T15:07:32.142Z,6.07
2018-06-06T15:10:00.846Z,6.87
2018-06-06T15:12:30.186Z,6.90
2018-06-06T15:14:58.891Z,6.70
2018-06-06T15:17:27.545Z,6.43
2018-06-06T15:19:56.290Z,6.40
2018-06-06T15:22:24.927Z,5.87
2018-06-06T15:24:53.717Z,5.90
2018-06-06T15:27:22.343Z,6.63
2018-06-06T15:29:51.032Z,6.70
2018-06-06T15:32:19.829Z,6.07
2018-06-06T15:34:48.578Z,5.87
2018-06-06T15:37:17.176Z,7.90
2018-06-06T15:39:45.865Z,6.27
2018-06-06T15:42:14.435Z,6.53
2018-06-06T15:44:43.158Z,6.67
2018-06-06T15:47:11.763Z,5.93
2018-06-06T15:49:41.273Z,6.00
2018-06-06T15:52:09.961Z,6.20
2018-06-06T15:54:38.567Z,5.90
2018-06-06T15:57:07.407Z,5.80
2018-06-06T15:59:35.926Z,6.47
2018-06-06T16:02:04.563Z,6.40
2018-06-06T16:04:33.173Z,6.80
2018-06-06T16:07:01.775Z,5.40
2018-06-06T16:09:31.444Z,4.93
2018-06-06T16:12:00.078Z,5.00
2018-06-06T16:14:28.748Z,5.63
2018-06-06T16:16:57.552Z,5.50
2018-06-06T16:19:26.129Z,5.60
2018-06-06T16:21:54.937Z,11.27
2018-06-06T16:24:23.580Z,5.43
2018-06-06T16:26:52.206Z,5.23
2018-06-06T16:29:20.809Z,5.07
2018-06-06T16:31:49.374Z,5.07
2018-06-06T16:34:18.028Z,4.77
2018-06-06T16:36:46.667Z,4.77
2018-06-06T16:39:15.416Z,4.47
2018-06-06T16:41:44.108Z,5.60
2018-06-06T16:44:13.101Z,5.83
2018-06-06T16:46:41.780Z,4.80
2018-06-06T16:49:10.369Z,5.73
2018-06-06T16:51:38.985Z,5.43
2018-06-06T16:54:07.529Z,5.80
2018-06-06T16:56:36.061Z,5.60
2018-06-06T16:59:04.744Z,5.57
2018-06-06T17:01:33.581Z,5.33
2018-06-06T17:04:02.168Z,6.67
2018-06-06T17:06:30.785Z,7.17
2018-06-06T17:08:59.364Z,6.70
2018-06-06T17:11:27.956Z,6.50
2018-06-06T17:13:56.677Z,6.53
2018-06-06T17:16:25.360Z,7.83
2018-06-06T17:18:54.037Z,8.27
2018-06-06T17:21:22.717Z,8.23
2018-06-06T17:23:51.288Z,7.93
2018-06-06T17:26:19.938Z,7.80
2018-06-06T17:28:48.527Z,9.93
2018-06-06T17:31:17.157Z,8.60
2018-06-06T17:33:45.858Z,9.60
2018-06-06T17:36:14.667Z,9.20
2018-06-06T17:38:43.277Z,9.70
2018-06-06T17:41:12.164Z,9.93
2018-06-06T17:43:40.849Z,11.27
2018-06-06T17:46:09.718Z,10.47
2018-06-06T17:48:38.301Z,11.03
2018-06-06T17:51:07.145Z,10.73
2018-06-06T17:53:36.053Z,10.03
2018-06-06T17:56:04.840Z,9.70
2018-06-06T17:58:33.522Z,10.53
2018-06-06T18:01:02.138Z,10.53
2018-06-06T18:03:31.673Z,10.97
2018-06-06T18:06:00.278Z,10.50
2018-06-06T18:08:29.243Z,11.70
2018-06-06T18:10:57.890Z,11.83
2018-06-06T18:13:26.535Z,11.20
2018-06-06T18:15:55.259Z,9.80
2018-06-06T18:18:23.934Z,11.20
2018-06-06T18:20:52.663Z,11.40
2018-06-06T18:23:21.560Z,10.57
2018-06-06T18:25:50.193Z,12.83
2018-06-06T18:28:18.948Z,10.00
2018-06-06T18:30:47.899Z,12.37
2018-06-06T18:33:16.529Z,10.70
2018-06-06T18:35:45.305Z,10.60
2018-06-06T18:38:13.996Z,11.50
2018-06-06T18:40:42.599Z,11.43
2018-06-06T18:43:11.384Z,13.80
2018-06-06T18:45:40.304Z,11.53
2018-06-06T18:48:09.007Z,12.23
2018-06-06T18:50:37.601Z,11.03
2018-06-06T18:53:06.195Z,10.57
2018-06-06T18:55:34.975Z,11.70
2018-06-06T18:58:03.839Z,11.23
2018-06-06T19:00:33.438Z,15.73
2018-06-06T19:03:01.974Z,12.57
2018-06-06T19:05:30.640Z,12.00
2018-06-06T19:07:59.473Z,12.67
2018-06-06T19:10:28.138Z,12.07
2018-06-06T19:12:56.908Z,11.90
2018-06-06T19:15:25.651Z,11.90
2018-06-06T19:17:54.348Z,12.07
2018-06-06T19:20:23.285Z,11.53
2018-06-06T19:22:51.932Z,12.67
2018-06-06T19:25:20.578Z,11.83
2018-06-06T19:27:49.184Z,12.40
2018-06-06T19:30:18.406Z,12.63
2018-06-06T19:32:47.018Z,13.13
2018-06-06T19:35:15.681Z,12.43
2018-06-06T19:37:44.325Z,13.33
2018-06-06T19:40:13.088Z,27.93
2018-06-06T19:42:41.769Z,20.27
2018-06-06T19:45:10.392Z,15.17
2018-06-06T19:47:38.984Z,14.00
2018-06-06T19:50:07.868Z,14.73
2018-06-06T19:52:36.512Z,14.23
2018-06-06T19:55:05.332Z,14.20
2018-06-06T19:57:33.995Z,14.77
2018-06-06T20:00:03.482Z,13.87
2018-06-06T20:02:32.303Z,13.97
2018-06-06T20:05:00.945Z,13.10
2018-06-06T20:07:29.841Z,77.83
2018-06-06T20:09:58.571Z,44.70
2018-06-06T20:12:27.183Z,15.40
2018-06-06T20:14:55.795Z,12.57
2018-06-06T20:17:24.442Z,15.10
2018-06-06T20:19:53.504Z,14.30
2018-06-06T20:22:22.161Z,15.03
2018-06-06T20:24:50.728Z,12.40
2018-06-06T20:27:19.374Z,14.50
2018-06-06T20:29:47.950Z,13.80
2018-06-06T20:32:16.565Z,11.77
2018-06-06T20:34:45.413Z,12.23
2018-06-06T20:37:14.230Z,13.37
2018-06-06T20:39:43.088Z,12.53
2018-06-06T20:42:11.769Z,12.73
2018-06-06T20:44:40.606Z,12.50
2018-06-06T20:47:09.235Z,12.40
2018-06-06T20:49:38.211Z,12.53
2018-06-06T20:52:06.854Z,11.67
2018-06-06T20:54:35.847Z,13.33
2018-06-06T20:57:04.664Z,12.83
2018-06-06T20:59:33.300Z,13.57
2018-06-06T21:02:02.027Z,13.40
2018-06-06T21:04:30.941Z,13.83
2018-06-06T21:06:59.565Z,14.03
2018-06-06T21:09:28.273Z,13.27
2018-06-06T21:11:56.829Z,13.50
2018-06-06T21:14:25.651Z,14.07
2018-06-06T21:16:54.373Z,14.27
2018-06-06T21:19:23.063Z,13.50
2018-06-06T21:21:51.669Z,13.10
2018-06-06T21:24:20.561Z,13.60
2018-06-06T21:26:49.180Z,14.70
2018-06-06T21:29:17.883Z,13.70
2018-06-06T21:31:48.757Z,13.50
2018-06-06T21:34:17.558Z,13.83
2018-06-06T21:36:46.308Z,14.97
2018-06-06T21:39:14.920Z,13.83
2018-06-06T21:41:43.755Z,12.90
2018-06-06T21:44:12.603Z,13.50
2018-06-06T21:46:41.310Z,12.77
2018-06-06T21:49:10.008Z,13.73
2018-06-06T21:51:38.628Z,12.20
2018-06-06T21:54:07.211Z,13.60
2018-06-06T21:56:35.936Z,12.93
2018-06-06T21:59:04.892Z,12.83
2018-06-06T22:01:33.701Z,14.27
2018-06-06T22:04:02.352Z,13.60
2018-06-06T22:06:31.027Z,13.13
2018-06-06T22:08:59.716Z,13.03
2018-06-06T22:11:28.285Z,13.10
2018-06-06T22:13:56.969Z,13.37
2018-06-06T22:16:25.612Z,13.70
2018-06-06T22:18:54.248Z,11.90
2018-06-06T22:21:22.937Z,12.40
2018-06-06T22:23:51.655Z,12.00
2018-06-06T22:26:21.135Z,12.27
2018-06-06T22:28:49.743Z,11.73
2018-06-06T22:31:18.376Z,12.90
2018-06-06T22:33:47.034Z,12.63
2018-06-06T22:36:15.772Z,13.67
2018-06-06T22:38:44.352Z,12.43
2018-06-06T22:41:13.492Z,14.20
2018-06-06T22:43:42.112Z,13.50
2018-06-06T22:46:10.701Z,13.27
2018-06-06T22:48:39.451Z,13.80
2018-06-06T22:51:08.133Z,12.90
2018-06-06T22:53:36.752Z,13.73
2018-06-06T22:56:05.815Z,13.60
2018-06-06T22:58:34.478Z,13.33
2018-06-06T23:01:03.362Z,15.60
2018-06-06T23:03:32.136Z,13.33
2018-06-06T23:06:00.732Z,14.10
2018-06-06T23:08:29.401Z,19.40
2018-06-06T23:10:57.980Z,15.40
2018-06-06T23:13:26.524Z,15.70
2018-06-06T23:15:55.173Z,12.17
2018-06-06T23:18:23.755Z,12.33
2018-06-06T23:20:52.645Z,12.43
2018-06-06T23:23:21.200Z,12.33
2018-06-06T23:25:49.965Z,13.47
2018-06-06T23:28:18.568Z,12.57
2018-06-06T23:30:47.297Z,14.37
2018-06-06T23:33:16.082Z,11.57
2018-06-06T23:35:44.962Z,13.03
2018-06-06T23:38:13.648Z,13.70
2018-06-06T23:40:42.247Z,12.60
2018-06-06T23:43:10.809Z,12.97
2018-06-06T23:45:39.408Z,13.40
2018-06-06T23:48:08.226Z,13.00
2018-06-06T23:50:36.935Z,13.10
2018-06-06T23:53:05.590Z,14.10
2018-06-06T23:55:34.317Z,13.37
2018-06-06T23:58:03.492Z,13.23
